AEE292 LFMN-LGZA
Flight info
| Callsign | AEE292 |
|---|---|
| Flight time | 1h 40m |
| Altitude | 37000 |
| Route | SODRI G374 BTA DCT DOKAR DCT SUNEV DCT GISPA DCT RIFFI DCT POLIT DCT ULKEN DCT RUTOM M601 LASKO |
| Aircraft | B739/M-SDE2E3FGHIRWXY/LB1 |
Departure
| Time | 2026-05-04 14:37 |
|---|---|
| Airport | Nice-Côte d'Azur Airport (LFMN) |
Arrival
| Time | 2026-05-04 16:18 |
|---|---|
| Airport | Zakynthos International Airport Dionysios Solomos (LGZA) |
| Time | Latitude | Longitude | Altitude | Speed | Heading |
|---|---|---|---|---|---|
| 2026-05-04 14:17 | 43.66613 | 7.21655 | 21 ft | 0 kts | 315° |
| 2026-05-04 14:29 | 43.66595 | 7.21681 | 24 ft | 2 kts | 316° |
| 2026-05-04 14:29 | 43.66570 | 7.21711 | 24 ft | 2 kts | 323° |
| 2026-05-04 14:30 | 43.66556 | 7.21723 | 21 ft | 2 kts | 347° |
| 2026-05-04 14:30 | 43.66541 | 7.21719 | 23 ft | 1 kts | 43° |
| 2026-05-04 14:30 | 43.66538 | 7.21716 | 23 ft | 0 kts | 46° |
| 2026-05-04 14:31 | 43.66568 | 7.21755 | 22 ft | 18 kts | 44° |
| 2026-05-04 14:32 | 43.66587 | 7.21977 | 21 ft | 12 kts | 154° |
| 2026-05-04 14:32 | 43.66519 | 7.21925 | 21 ft | 12 kts | 226° |
| 2026-05-04 14:32 | 43.66439 | 7.21811 | 21 ft | 22 kts | 226° |
| 2026-05-04 14:32 | 43.66327 | 7.21664 | 21 ft | 22 kts | 224° |
| 2026-05-04 14:33 | 43.66221 | 7.21517 | 21 ft | 21 kts | 226° |
| 2026-05-04 14:33 | 43.66118 | 7.21373 | 21 ft | 21 kts | 224° |
| 2026-05-04 14:33 | 43.66017 | 7.21236 | 21 ft | 20 kts | 224° |
| 2026-05-04 14:33 | 43.65919 | 7.21103 | 21 ft | 19 kts | 224° |
| 2026-05-04 14:34 | 43.65824 | 7.20974 | 21 ft | 19 kts | 224° |
| 2026-05-04 14:34 | 43.65716 | 7.20889 | 21 ft | 19 kts | 172° |
| 2026-05-04 14:34 | 43.65587 | 7.20915 | 23 ft | 18 kts | 171° |
| 2026-05-04 14:34 | 43.65462 | 7.20942 | 21 ft | 18 kts | 171° |
| 2026-05-04 14:35 | 43.65320 | 7.20925 | 23 ft | 23 kts | 224° |
| 2026-05-04 14:35 | 43.65211 | 7.20771 | 21 ft | 22 kts | 227° |
| 2026-05-04 14:35 | 43.65104 | 7.20619 | 21 ft | 22 kts | 225° |
| 2026-05-04 14:35 | 43.64998 | 7.20474 | 21 ft | 21 kts | 225° |
| 2026-05-04 14:36 | 43.64894 | 7.20333 | 21 ft | 21 kts | 225° |
| 2026-05-04 14:36 | 43.64793 | 7.20199 | 21 ft | 20 kts | 211° |
| 2026-05-04 14:36 | 43.64720 | 7.20298 | 23 ft | 19 kts | 66° |
| 2026-05-04 14:36 | 43.64807 | 7.20434 | 21 ft | 19 kts | 45° |
| 2026-05-04 14:37 | 43.65038 | 7.20753 | 21 ft | 87 kts | 45° |
| 2026-05-04 14:37 | 43.65628 | 7.21591 | 60 ft | 150 kts | 49° |
| 2026-05-04 14:37 | 43.66455 | 7.22604 | 643 ft | 167 kts | 46° |
| 2026-05-04 14:37 | 43.67387 | 7.23691 | 1347 ft | 180 kts | 47° |
| 2026-05-04 14:38 | 43.67935 | 7.25251 | 2004 ft | 196 kts | 89° |
| 2026-05-04 14:38 | 43.67445 | 7.27108 | 2399 ft | 225 kts | 131° |
| 2026-05-04 14:38 | 43.66068 | 7.28223 | 3104 ft | 241 kts | 154° |
| 2026-05-04 14:38 | 43.64526 | 7.29313 | 3880 ft | 249 kts | 145° |
| 2026-05-04 14:39 | 43.63159 | 7.30607 | 5047 ft | 236 kts | 141° |
| 2026-05-04 14:39 | 43.61921 | 7.31932 | 6228 ft | 215 kts | 140° |
| 2026-05-04 14:39 | 43.60801 | 7.33199 | 7146 ft | 206 kts | 140° |
| 2026-05-04 14:40 | 43.58223 | 7.35067 | 8339 ft | 218 kts | 161° |
| 2026-05-04 14:40 | 43.56769 | 7.35788 | 8972 ft | 227 kts | 161° |
| 2026-05-04 14:40 | 43.55270 | 7.36545 | 9764 ft | 230 kts | 161° |
| 2026-05-04 14:40 | 43.53772 | 7.37305 | 10640 ft | 228 kts | 162° |
| 2026-05-04 14:41 | 43.52263 | 7.38069 | 11278 ft | 235 kts | 163° |
| 2026-05-04 14:41 | 43.50689 | 7.38865 | 11693 ft | 250 kts | 163° |
| 2026-05-04 14:41 | 43.47133 | 7.40655 | 12055 ft | 296 kts | 162° |
| 2026-05-04 14:42 | 43.42969 | 7.42756 | 12396 ft | 339 kts | 162° |
| 2026-05-04 14:42 | 43.40689 | 7.43909 | 12651 ft | 355 kts | 162° |
| 2026-05-04 14:42 | 43.38345 | 7.45095 | 13128 ft | 363 kts | 162° |
| 2026-05-04 14:43 | 43.35960 | 7.46303 | 13784 ft | 366 kts | 162° |
| 2026-05-04 14:43 | 43.33562 | 7.47515 | 14375 ft | 369 kts | 162° |
| 2026-05-04 14:43 | 43.31163 | 7.48726 | 14960 ft | 372 kts | 162° |
| 2026-05-04 14:43 | 43.28725 | 7.49954 | 15575 ft | 374 kts | 163° |
| 2026-05-04 14:44 | 43.26265 | 7.51192 | 16170 ft | 377 kts | 163° |
| 2026-05-04 14:44 | 43.23799 | 7.52431 | 16742 ft | 380 kts | 163° |
| 2026-05-04 14:44 | 43.21299 | 7.53686 | 17295 ft | 383 kts | 163° |
| 2026-05-04 14:44 | 43.18784 | 7.54948 | 17855 ft | 386 kts | 163° |
| 2026-05-04 14:45 | 43.16247 | 7.56219 | 18395 ft | 389 kts | 163° |
| 2026-05-04 14:45 | 43.13727 | 7.57651 | 18829 ft | 397 kts | 153° |
| 2026-05-04 14:45 | 43.11582 | 7.60091 | 19271 ft | 409 kts | 133° |
| 2026-05-04 14:45 | 43.10065 | 7.63412 | 19725 ft | 419 kts | 115° |
| 2026-05-04 14:46 | 43.09333 | 7.67314 | 20188 ft | 427 kts | 101° |
| 2026-05-04 14:46 | 43.08907 | 7.71304 | 20638 ft | 430 kts | 100° |
| 2026-05-04 14:46 | 43.08470 | 7.75368 | 21060 ft | 434 kts | 101° |
| 2026-05-04 14:46 | 43.07991 | 7.79466 | 21502 ft | 437 kts | 101° |
| 2026-05-04 14:47 | 43.07507 | 7.83578 | 21957 ft | 440 kts | 101° |
| 2026-05-04 14:47 | 43.07031 | 7.87735 | 22382 ft | 444 kts | 101° |
| 2026-05-04 14:47 | 43.06555 | 7.91928 | 22805 ft | 447 kts | 100° |
| 2026-05-04 14:47 | 43.06075 | 7.96151 | 23227 ft | 450 kts | 100° |
| 2026-05-04 14:48 | 43.05591 | 8.00399 | 23638 ft | 453 kts | 100° |
| 2026-05-04 14:48 | 43.05101 | 8.04665 | 23969 ft | 456 kts | 100° |
| 2026-05-04 14:48 | 43.04603 | 8.08977 | 24298 ft | 460 kts | 100° |
| 2026-05-04 14:48 | 43.04099 | 8.13321 | 24619 ft | 463 kts | 101° |
| 2026-05-04 14:49 | 43.03592 | 8.17677 | 24943 ft | 467 kts | 101° |
| 2026-05-04 14:49 | 43.03085 | 8.22015 | 25261 ft | 470 kts | 101° |
| 2026-05-04 14:49 | 43.02567 | 8.26440 | 25576 ft | 473 kts | 101° |
| 2026-05-04 14:49 | 43.02044 | 8.30900 | 25879 ft | 476 kts | 101° |
| 2026-05-04 14:50 | 43.01507 | 8.35378 | 26181 ft | 479 kts | 103° |
| 2026-05-04 14:50 | 43.00518 | 8.39704 | 26425 ft | 478 kts | 119° |
| 2026-05-04 14:50 | 42.98935 | 8.43704 | 26785 ft | 478 kts | 122° |
| 2026-05-04 14:50 | 42.97298 | 8.47653 | 27080 ft | 480 kts | 123° |
| 2026-05-04 14:51 | 42.95657 | 8.51648 | 27346 ft | 484 kts | 122° |
| 2026-05-04 14:51 | 42.94029 | 8.55695 | 27621 ft | 487 kts | 122° |
| 2026-05-04 14:51 | 42.92415 | 8.59778 | 27916 ft | 490 kts | 122° |
| 2026-05-04 14:51 | 42.90796 | 8.63898 | 28214 ft | 493 kts | 122° |
| 2026-05-04 14:52 | 42.89169 | 8.68024 | 28468 ft | 496 kts | 122° |
| 2026-05-04 14:52 | 42.87529 | 8.72171 | 28732 ft | 499 kts | 122° |
| 2026-05-04 14:52 | 42.85871 | 8.76353 | 28996 ft | 502 kts | 122° |
| 2026-05-04 14:52 | 42.84204 | 8.80551 | 29259 ft | 504 kts | 122° |
| 2026-05-04 14:53 | 42.82530 | 8.84763 | 29551 ft | 506 kts | 122° |
| 2026-05-04 14:53 | 42.80848 | 8.88991 | 29910 ft | 507 kts | 122° |
| 2026-05-04 14:53 | 42.79167 | 8.93213 | 30263 ft | 507 kts | 122° |
| 2026-05-04 14:53 | 42.77508 | 8.97375 | 30554 ft | 507 kts | 123° |
| 2026-05-04 14:54 | 42.75824 | 9.01593 | 30831 ft | 508 kts | 123° |
| 2026-05-04 14:54 | 42.74135 | 9.05818 | 31133 ft | 508 kts | 123° |
| 2026-05-04 14:54 | 42.72440 | 9.10047 | 31406 ft | 509 kts | 123° |
| 2026-05-04 14:54 | 42.70748 | 9.14271 | 31689 ft | 509 kts | 123° |
| 2026-05-04 14:55 | 42.69053 | 9.18507 | 31990 ft | 510 kts | 123° |
| 2026-05-04 14:55 | 42.67356 | 9.22745 | 32270 ft | 510 kts | 123° |
| 2026-05-04 14:55 | 42.65652 | 9.26996 | 32530 ft | 511 kts | 124° |
| 2026-05-04 14:55 | 42.63950 | 9.31239 | 32886 ft | 510 kts | 124° |
| 2026-05-04 14:56 | 42.62255 | 9.35457 | 33160 ft | 510 kts | 124° |
| 2026-05-04 14:56 | 42.60555 | 9.39681 | 33390 ft | 511 kts | 124° |
| 2026-05-04 14:56 | 42.58843 | 9.43923 | 33627 ft | 512 kts | 124° |
| 2026-05-04 14:56 | 42.57184 | 9.48213 | 33881 ft | 515 kts | 119° |
| 2026-05-04 14:57 | 42.55868 | 9.52745 | 34121 ft | 519 kts | 114° |
| 2026-05-04 14:57 | 42.54684 | 9.57373 | 34363 ft | 519 kts | 112° |
| 2026-05-04 14:57 | 42.53523 | 9.62005 | 34610 ft | 518 kts | 113° |
| 2026-05-04 14:57 | 42.52354 | 9.66557 | 34850 ft | 516 kts | 113° |
| 2026-05-04 14:58 | 42.51144 | 9.71135 | 35086 ft | 515 kts | 114° |
| 2026-05-04 14:58 | 42.49958 | 9.75724 | 35312 ft | 516 kts | 110° |
| 2026-05-04 14:58 | 42.49112 | 9.80466 | 35525 ft | 518 kts | 103° |
| 2026-05-04 14:58 | 42.48590 | 9.83683 | 35673 ft | 516 kts | 108° |
| 2026-05-04 14:59 | 42.47017 | 9.89702 | 35936 ft | 509 kts | 120° |
| 2026-05-04 14:59 | 42.45294 | 9.93866 | 36140 ft | 504 kts | 126° |
| 2026-05-04 14:59 | 42.41587 | 10.01899 | 36580 ft | 502 kts | 127° |
| 2026-05-04 15:00 | 42.39728 | 10.05883 | 36752 ft | 502 kts | 126° |
| 2026-05-04 15:00 | 42.37873 | 10.09892 | 36918 ft | 502 kts | 126° |
| 2026-05-04 15:00 | 42.36032 | 10.13906 | 37068 ft | 502 kts | 126° |
| 2026-05-04 15:01 | 42.30548 | 10.25984 | 37073 ft | 502 kts | 125° |
| 2026-05-04 15:01 | 42.26905 | 10.34009 | 37074 ft | 499 kts | 126° |
| 2026-05-04 15:02 | 42.23268 | 10.41988 | 37086 ft | 498 kts | 126° |
| 2026-05-04 15:02 | 42.20246 | 10.48597 | 37088 ft | 498 kts | 126° |
| 2026-05-04 15:03 | 42.16602 | 10.56544 | 37090 ft | 499 kts | 125° |
| 2026-05-04 15:03 | 42.12350 | 10.65791 | 37094 ft | 500 kts | 125° |
| 2026-05-04 15:04 | 42.08669 | 10.73777 | 37090 ft | 502 kts | 125° |
| 2026-05-04 15:04 | 42.05599 | 10.80419 | 37095 ft | 503 kts | 125° |
| 2026-05-04 15:05 | 42.01865 | 10.88479 | 37096 ft | 505 kts | 125° |
| 2026-05-04 15:05 | 41.98165 | 10.96445 | 37097 ft | 506 kts | 125° |
| 2026-05-04 15:06 | 41.94426 | 11.04475 | 37097 ft | 507 kts | 125° |
| 2026-05-04 15:07 | 41.88808 | 11.16499 | 37101 ft | 507 kts | 125° |
| 2026-05-04 15:07 | 41.85055 | 11.24507 | 37104 ft | 506 kts | 125° |
| 2026-05-04 15:08 | 41.81303 | 11.32493 | 37108 ft | 505 kts | 125° |
| 2026-05-04 15:08 | 41.77528 | 11.40440 | 37107 ft | 504 kts | 126° |
| 2026-05-04 15:09 | 41.73731 | 11.48320 | 37110 ft | 503 kts | 126° |
| 2026-05-04 15:09 | 41.69925 | 11.56197 | 37115 ft | 503 kts | 126° |
| 2026-05-04 15:10 | 41.64255 | 11.67927 | 37122 ft | 502 kts | 126° |
| 2026-05-04 15:11 | 41.58554 | 11.79683 | 37126 ft | 503 kts | 126° |
| 2026-05-04 15:11 | 41.54739 | 11.87524 | 37125 ft | 503 kts | 126° |
| 2026-05-04 15:12 | 41.50921 | 11.95350 | 37132 ft | 504 kts | 126° |
| 2026-05-04 15:12 | 41.47093 | 12.03178 | 37132 ft | 504 kts | 125° |
| 2026-05-04 15:13 | 41.43252 | 12.11010 | 37133 ft | 505 kts | 126° |
| 2026-05-04 15:13 | 41.39400 | 12.18847 | 37137 ft | 505 kts | 126° |
| 2026-05-04 15:14 | 41.35535 | 12.26690 | 37135 ft | 506 kts | 126° |
| 2026-05-04 15:14 | 41.31671 | 12.34510 | 37136 ft | 506 kts | 126° |
| 2026-05-04 15:15 | 41.27794 | 12.42337 | 37139 ft | 507 kts | 126° |
| 2026-05-04 15:15 | 41.23906 | 12.50170 | 37133 ft | 507 kts | 126° |
| 2026-05-04 15:16 | 41.18260 | 12.62071 | 37131 ft | 508 kts | 122° |
| 2026-05-04 15:17 | 41.12873 | 12.74193 | 37130 ft | 508 kts | 122° |
| 2026-05-04 15:17 | 41.07438 | 12.86219 | 37128 ft | 508 kts | 122° |
| 2026-05-04 15:18 | 41.03776 | 12.94238 | 37126 ft | 509 kts | 122° |
| 2026-05-04 15:19 | 40.98269 | 13.06259 | 37131 ft | 509 kts | 122° |
| 2026-05-04 15:19 | 40.92749 | 13.18271 | 37129 ft | 509 kts | 122° |
| 2026-05-04 15:20 | 40.89060 | 13.26274 | 37130 ft | 509 kts | 122° |
| 2026-05-04 15:20 | 40.85365 | 13.34268 | 37135 ft | 510 kts | 122° |
| 2026-05-04 15:21 | 40.81661 | 13.42260 | 37135 ft | 510 kts | 122° |
| 2026-05-04 15:22 | 40.76094 | 13.54234 | 37133 ft | 510 kts | 122° |
| 2026-05-04 15:22 | 40.70526 | 13.66162 | 37137 ft | 511 kts | 122° |
| 2026-05-04 15:23 | 40.66793 | 13.74134 | 37136 ft | 511 kts | 122° |
| 2026-05-04 15:23 | 40.63050 | 13.82106 | 37140 ft | 511 kts | 122° |
| 2026-05-04 15:24 | 40.55551 | 13.98017 | 37139 ft | 511 kts | 122° |
| 2026-05-04 15:25 | 40.51797 | 14.05953 | 37136 ft | 511 kts | 122° |
| 2026-05-04 15:26 | 40.46145 | 14.17859 | 37140 ft | 511 kts | 122° |
| 2026-05-04 15:26 | 40.40510 | 14.29687 | 37139 ft | 511 kts | 122° |
| 2026-05-04 15:27 | 40.34838 | 14.41546 | 37136 ft | 511 kts | 122° |
| 2026-05-04 15:28 | 40.29154 | 14.53386 | 37136 ft | 511 kts | 122° |
| 2026-05-04 15:29 | 40.23451 | 14.65220 | 37136 ft | 511 kts | 122° |
| 2026-05-04 15:30 | 40.10403 | 14.92884 | 37136 ft | 511 kts | 118° |
| 2026-05-04 15:31 | 40.05227 | 15.05065 | 37132 ft | 512 kts | 118° |
| 2026-05-04 15:32 | 39.96419 | 15.25268 | 37133 ft | 512 kts | 118° |
| 2026-05-04 15:34 | 39.87554 | 15.45411 | 37143 ft | 513 kts | 118° |
| 2026-05-04 15:34 | 39.82240 | 15.57429 | 37151 ft | 513 kts | 118° |
| 2026-05-04 15:35 | 39.76892 | 15.69477 | 37156 ft | 512 kts | 118° |
| 2026-05-04 15:36 | 39.71528 | 15.81513 | 37157 ft | 512 kts | 118° |
| 2026-05-04 15:36 | 39.67943 | 15.89533 | 37172 ft | 513 kts | 118° |
| 2026-05-04 15:37 | 39.64354 | 15.97545 | 37147 ft | 513 kts | 118° |
| 2026-05-04 15:37 | 39.60818 | 16.05567 | 37160 ft | 511 kts | 114° |
| 2026-05-04 15:38 | 39.57801 | 16.13879 | 37166 ft | 509 kts | 111° |
| 2026-05-04 15:38 | 39.54951 | 16.22218 | 37167 ft | 509 kts | 111° |
| 2026-05-04 15:39 | 39.52049 | 16.30579 | 37176 ft | 509 kts | 112° |
| 2026-05-04 15:40 | 39.47598 | 16.43111 | 37171 ft | 510 kts | 112° |
| 2026-05-04 15:40 | 39.44619 | 16.51428 | 37171 ft | 510 kts | 112° |
| 2026-05-04 15:41 | 39.41630 | 16.59755 | 37153 ft | 509 kts | 112° |
| 2026-05-04 15:41 | 39.38648 | 16.68049 | 37171 ft | 508 kts | 112° |
| 2026-05-04 15:42 | 39.35666 | 16.76320 | 37170 ft | 508 kts | 112° |
| 2026-05-04 15:42 | 39.32674 | 16.84594 | 37158 ft | 507 kts | 112° |
| 2026-05-04 15:43 | 39.29702 | 16.92791 | 37140 ft | 507 kts | 112° |
| 2026-05-04 15:43 | 39.26705 | 17.01035 | 37144 ft | 507 kts | 112° |
| 2026-05-04 15:44 | 39.23705 | 17.09263 | 37139 ft | 506 kts | 112° |
| 2026-05-04 15:44 | 39.20704 | 17.17471 | 37138 ft | 506 kts | 112° |
| 2026-05-04 15:45 | 39.17690 | 17.25690 | 37133 ft | 506 kts | 112° |
| 2026-05-04 15:45 | 39.14699 | 17.33828 | 37134 ft | 506 kts | 112° |
| 2026-05-04 15:46 | 39.11680 | 17.42015 | 37144 ft | 506 kts | 112° |
| 2026-05-04 15:46 | 39.08658 | 17.50189 | 37137 ft | 505 kts | 112° |
| 2026-05-04 15:47 | 39.05629 | 17.58360 | 37138 ft | 505 kts | 113° |
| 2026-05-04 15:47 | 39.03111 | 17.65136 | 37127 ft | 505 kts | 113° |
| 2026-05-04 15:48 | 39.00080 | 17.73271 | 37127 ft | 504 kts | 113° |
| 2026-05-04 15:48 | 38.95528 | 17.85450 | 37118 ft | 503 kts | 113° |
| 2026-05-04 15:49 | 38.92493 | 17.93540 | 37117 ft | 502 kts | 113° |
| 2026-05-04 15:49 | 38.89456 | 18.01615 | 37115 ft | 502 kts | 113° |
| 2026-05-04 15:50 | 38.86414 | 18.09681 | 37118 ft | 501 kts | 113° |
| 2026-05-04 15:50 | 38.83375 | 18.17718 | 37119 ft | 500 kts | 113° |
| 2026-05-04 15:51 | 38.80335 | 18.25737 | 37123 ft | 500 kts | 113° |
| 2026-05-04 15:51 | 38.77312 | 18.33690 | 37120 ft | 499 kts | 113° |
| 2026-05-04 15:52 | 38.74263 | 18.41691 | 37123 ft | 499 kts | 113° |
| 2026-05-04 15:52 | 38.71218 | 18.49659 | 37123 ft | 498 kts | 114° |
| 2026-05-04 15:53 | 38.68167 | 18.57623 | 37121 ft | 498 kts | 114° |
| 2026-05-04 15:53 | 38.64810 | 18.65390 | 37133 ft | 499 kts | 120° |
| 2026-05-04 15:54 | 38.61094 | 18.72896 | 37126 ft | 499 kts | 121° |
| 2026-05-04 15:54 | 38.57356 | 18.80311 | 37127 ft | 499 kts | 121° |
| 2026-05-04 15:55 | 38.55484 | 18.84042 | 36984 ft | 502 kts | 121° |
| 2026-05-04 15:55 | 38.53590 | 18.87834 | 36299 ft | 508 kts | 121° |
| 2026-05-04 15:55 | 38.51691 | 18.91644 | 35675 ft | 506 kts | 121° |
| 2026-05-04 15:55 | 38.49812 | 18.95417 | 35047 ft | 503 kts | 121° |
| 2026-05-04 15:56 | 38.47938 | 18.99177 | 34475 ft | 500 kts | 121° |
| 2026-05-04 15:56 | 38.46077 | 19.02910 | 33843 ft | 498 kts | 121° |
| 2026-05-04 15:56 | 38.44217 | 19.06634 | 33169 ft | 496 kts | 121° |
| 2026-05-04 15:56 | 38.42356 | 19.10357 | 32521 ft | 500 kts | 121° |
| 2026-05-04 15:57 | 38.40478 | 19.14109 | 31903 ft | 504 kts | 121° |
| 2026-05-04 15:57 | 38.38590 | 19.17877 | 31275 ft | 504 kts | 121° |
| 2026-05-04 15:57 | 38.36702 | 19.21636 | 30663 ft | 501 kts | 121° |
| 2026-05-04 15:57 | 38.34826 | 19.25369 | 30043 ft | 498 kts | 121° |
| 2026-05-04 15:58 | 38.32961 | 19.29074 | 29349 ft | 495 kts | 121° |
| 2026-05-04 15:58 | 38.31106 | 19.32754 | 28672 ft | 491 kts | 121° |
| 2026-05-04 15:58 | 38.29270 | 19.36394 | 28008 ft | 487 kts | 121° |
| 2026-05-04 15:58 | 38.27446 | 19.40006 | 27373 ft | 483 kts | 121° |
| 2026-05-04 15:59 | 38.25631 | 19.43598 | 26735 ft | 480 kts | 121° |
| 2026-05-04 15:59 | 38.23857 | 19.47105 | 26125 ft | 476 kts | 121° |
| 2026-05-04 15:59 | 38.22075 | 19.50624 | 25520 ft | 472 kts | 121° |
| 2026-05-04 15:59 | 38.20301 | 19.54123 | 24928 ft | 469 kts | 121° |
| 2026-05-04 16:00 | 38.18536 | 19.57598 | 24348 ft | 466 kts | 121° |
| 2026-05-04 16:00 | 38.16782 | 19.61052 | 23780 ft | 462 kts | 121° |
| 2026-05-04 16:00 | 38.15042 | 19.64472 | 23121 ft | 459 kts | 121° |
| 2026-05-04 16:00 | 38.13310 | 19.67873 | 22461 ft | 456 kts | 121° |
| 2026-05-04 16:01 | 38.11592 | 19.71245 | 21810 ft | 453 kts | 121° |
| 2026-05-04 16:01 | 38.09888 | 19.74583 | 21165 ft | 449 kts | 121° |
| 2026-05-04 16:01 | 38.08192 | 19.77903 | 20543 ft | 446 kts | 120° |
| 2026-05-04 16:01 | 38.06510 | 19.81191 | 19967 ft | 442 kts | 120° |
| 2026-05-04 16:02 | 38.04846 | 19.84442 | 19493 ft | 436 kts | 120° |
| 2026-05-04 16:02 | 38.03220 | 19.87617 | 19019 ft | 431 kts | 120° |
| 2026-05-04 16:02 | 37.99988 | 19.93916 | 18052 ft | 421 kts | 120° |
| 2026-05-04 16:03 | 37.98395 | 19.97016 | 17526 ft | 416 kts | 120° |
| 2026-05-04 16:03 | 37.96824 | 20.00072 | 17002 ft | 412 kts | 120° |
| 2026-05-04 16:03 | 37.95266 | 20.03099 | 16501 ft | 408 kts | 120° |
| 2026-05-04 16:03 | 37.93722 | 20.06096 | 16004 ft | 404 kts | 120° |
| 2026-05-04 16:04 | 37.92187 | 20.09073 | 15504 ft | 400 kts | 120° |
| 2026-05-04 16:04 | 37.89177 | 20.14903 | 14629 ft | 391 kts | 120° |
| 2026-05-04 16:04 | 37.87697 | 20.17766 | 14200 ft | 386 kts | 120° |
| 2026-05-04 16:05 | 37.86231 | 20.20599 | 13779 ft | 381 kts | 120° |
| 2026-05-04 16:05 | 37.84786 | 20.23389 | 13328 ft | 377 kts | 120° |
| 2026-05-04 16:05 | 37.81948 | 20.28861 | 12454 ft | 367 kts | 120° |
| 2026-05-04 16:06 | 37.80555 | 20.31545 | 12054 ft | 363 kts | 120° |
| 2026-05-04 16:06 | 37.76929 | 20.38519 | 11032 ft | 351 kts | 120° |
| 2026-05-04 16:07 | 37.75154 | 20.41927 | 10537 ft | 341 kts | 120° |
| 2026-05-04 16:07 | 37.71372 | 20.49176 | 9399 ft | 321 kts | 120° |
| 2026-05-04 16:08 | 37.70155 | 20.51506 | 9004 ft | 315 kts | 120° |
| 2026-05-04 16:08 | 37.66617 | 20.58273 | 7842 ft | 301 kts | 120° |
| 2026-05-04 16:09 | 37.64341 | 20.62620 | 7128 ft | 292 kts | 121° |
| 2026-05-04 16:09 | 37.62136 | 20.66824 | 6490 ft | 283 kts | 121° |
| 2026-05-04 16:10 | 37.60002 | 20.70890 | 5858 ft | 273 kts | 121° |
| 2026-05-04 16:11 | 37.56933 | 20.76723 | 4949 ft | 260 kts | 121° |
| 2026-05-04 16:11 | 37.56017 | 20.78660 | 4634 ft | 255 kts | 112° |
| 2026-05-04 16:12 | 37.54675 | 20.84844 | 3767 ft | 234 kts | 94° |
| 2026-05-04 16:12 | 37.54581 | 20.90576 | 3014 ft | 198 kts | 82° |
| 2026-05-04 16:13 | 37.55203 | 20.93905 | 2928 ft | 194 kts | 48° |
| 2026-05-04 16:13 | 37.57557 | 20.94680 | 2594 ft | 180 kts | 345° |
| 2026-05-04 16:14 | 37.59934 | 20.93806 | 2276 ft | 182 kts | 342° |
| 2026-05-04 16:14 | 37.62278 | 20.92922 | 2209 ft | 166 kts | 343° |
| 2026-05-04 16:15 | 37.65510 | 20.91766 | 1928 ft | 161 kts | 342° |
| 2026-05-04 16:16 | 37.67634 | 20.91031 | 1467 ft | 158 kts | 342° |
| 2026-05-04 16:16 | 37.70767 | 20.89946 | 775 ft | 151 kts | 343° |
| 2026-05-04 16:17 | 37.72717 | 20.89271 | 293 ft | 138 kts | 343° |
| 2026-05-04 16:18 | 37.75438 | 20.88290 | 22 ft | 99 kts | 343° |
| 2026-05-04 16:18 | 37.75841 | 20.88152 | 23 ft | 48 kts | 345° |
| 2026-05-04 16:19 | 37.76051 | 20.88085 | 21 ft | 7 kts | 166° |
| 2026-05-04 16:19 | 37.75791 | 20.88165 | 23 ft | 24 kts | 163° |
| 2026-05-04 16:20 | 37.75474 | 20.88372 | 21 ft | 9 kts | 104° |
| 2026-05-04 16:20 | 37.75392 | 20.88439 | 21 ft | 0 kts | 145° |
| 2026-05-04 16:21 | 37.75395 | 20.88475 | 21 ft | 5 kts | 63° |
| 2026-05-04 16:22 | 37.75409 | 20.88520 | 22 ft | 0 kts | 71° |